createdAt,value
2019-06-15T00:01:15.207Z,18.20
2019-06-15T00:03:42.427Z,18.10
2019-06-15T00:06:10.221Z,18.00
2019-06-15T00:08:37.460Z,18.10
2019-06-15T00:11:04.704Z,18.10
2019-06-15T00:13:32.012Z,18.20
2019-06-15T00:15:59.397Z,18.20
2019-06-15T00:18:26.655Z,18.00
2019-06-15T00:20:53.887Z,18.10
2019-06-15T00:23:21.116Z,18.20
2019-06-15T00:25:48.363Z,18.20
2019-06-15T00:28:15.602Z,18.20
2019-06-15T00:30:42.908Z,18.10
2019-06-15T00:33:10.143Z,18.10
2019-06-15T00:35:37.826Z,18.20
2019-06-15T00:38:08.083Z,18.20
2019-06-15T00:40:35.319Z,18.10
2019-06-15T00:43:02.544Z,18.10
2019-06-15T00:45:29.775Z,18.00
2019-06-15T00:47:56.999Z,18.10
2019-06-15T00:50:24.229Z,18.00
2019-06-15T00:52:51.548Z,18.10
2019-06-15T00:55:18.788Z,18.20
2019-06-15T00:57:46.117Z,18.00
2019-06-15T01:00:13.452Z,17.90
2019-06-15T01:02:40.718Z,17.90
2019-06-15T01:05:08.559Z,17.90
2019-06-15T01:07:35.779Z,17.90
2019-06-15T01:10:03.375Z,17.70
2019-06-15T01:12:30.587Z,17.70
2019-06-15T01:14:57.815Z,17.60
2019-06-15T01:17:25.098Z,17.70
2019-06-15T01:19:52.328Z,17.70
2019-06-15T01:22:19.539Z,17.60
2019-06-15T01:24:46.823Z,17.60
2019-06-15T01:27:14.071Z,17.60
2019-06-15T01:29:41.506Z,17.60
2019-06-15T01:32:08.736Z,17.60
2019-06-15T01:34:35.945Z,17.40
2019-06-15T01:37:03.191Z,17.50
2019-06-15T01:39:30.423Z,17.60
2019-06-15T01:41:57.649Z,17.60
2019-06-15T01:44:24.899Z,17.60
2019-06-15T01:46:52.125Z,17.40
2019-06-15T01:49:19.355Z,17.40
2019-06-15T01:51:46.591Z,17.30
2019-06-15T01:54:13.828Z,17.40
2019-06-15T01:56:42.649Z,17.50
2019-06-15T01:59:09.995Z,17.40
2019-06-15T02:01:37.232Z,17.40
2019-06-15T02:04:04.467Z,17.40
2019-06-15T02:06:31.680Z,17.30
2019-06-15T02:08:58.931Z,17.30
2019-06-15T02:11:26.165Z,17.40
2019-06-15T02:13:53.495Z,17.40
2019-06-15T02:16:20.766Z,17.30
2019-06-15T02:18:47.984Z,17.30
2019-06-15T02:21:15.221Z,17.20
2019-06-15T02:23:42.491Z,17.20
2019-06-15T02:26:09.715Z,17.10
2019-06-15T02:28:36.943Z,17.20
2019-06-15T02:31:04.174Z,17.30
2019-06-15T02:33:31.533Z,17.30
2019-06-15T02:35:58.743Z,17.20
2019-06-15T02:38:26.686Z,17.20
2019-06-15T02:40:54.024Z,17.00
2019-06-15T02:43:21.424Z,17.00
2019-06-15T02:45:48.664Z,17.10
2019-06-15T02:48:15.901Z,17.20
2019-06-15T02:50:43.625Z,17.10
2019-06-15T02:53:11.336Z,17.10
2019-06-15T02:55:50.344Z,17.20
2019-06-15T02:58:11.273Z,17.10
2019-06-15T03:00:50.951Z,17.00
2019-06-15T03:03:18.637Z,17.10
2019-06-15T03:05:46.241Z,17.10
2019-06-15T03:08:14.164Z,17.20
2019-06-15T03:10:42.265Z,16.90
2019-06-15T03:13:10.439Z,17.00
2019-06-15T03:15:37.665Z,17.00
2019-06-15T03:18:04.899Z,16.90
2019-06-15T03:20:35.127Z,16.90
2019-06-15T03:23:02.365Z,17.10
2019-06-15T03:25:29.589Z,17.00
2019-06-15T03:27:56.808Z,17.00
2019-06-15T03:30:24.140Z,17.00
2019-06-15T03:32:51.379Z,16.90
2019-06-15T03:35:19.311Z,17.00
2019-06-15T03:37:46.548Z,17.00
2019-06-15T03:40:14.410Z,17.00
2019-06-15T03:42:41.655Z,16.90
2019-06-15T03:45:09.375Z,17.10
2019-06-15T03:47:36.599Z,16.90
2019-06-15T03:50:04.405Z,16.90
2019-06-15T03:52:31.796Z,16.90
2019-06-15T03:54:59.055Z,17.00
2019-06-15T03:57:26.316Z,16.70
2019-06-15T03:59:53.543Z,17.00
2019-06-15T04:02:20.771Z,16.90
2019-06-15T04:04:48.004Z,16.90
2019-06-15T04:07:15.228Z,16.80
2019-06-15T04:09:42.479Z,17.00
2019-06-15T04:12:09.692Z,16.90
2019-06-15T04:14:36.928Z,16.90
2019-06-15T04:17:04.159Z,16.80
2019-06-15T04:19:31.391Z,16.80
2019-06-15T04:21:58.624Z,16.80
2019-06-15T04:24:25.860Z,16.70
2019-06-15T04:26:53.088Z,16.80
2019-06-15T04:29:20.344Z,16.90
2019-06-15T04:31:47.591Z,16.90
2019-06-15T04:34:14.835Z,17.00
2019-06-15T04:36:42.069Z,17.20
2019-06-15T04:39:09.295Z,17.20
2019-06-15T04:41:36.519Z,17.30
2019-06-15T04:44:03.807Z,17.30
2019-06-15T04:46:32.176Z,17.40
2019-06-15T04:48:59.612Z,17.50
2019-06-15T04:51:26.855Z,17.50
2019-06-15T04:53:54.117Z,17.60
2019-06-15T04:56:21.327Z,17.70
2019-06-15T04:58:48.681Z,17.70
2019-06-15T05:01:15.901Z,17.50
2019-06-15T05:03:43.163Z,17.70
2019-06-15T05:06:10.423Z,17.80
2019-06-15T05:08:37.803Z,17.80
2019-06-15T05:11:05.052Z,17.90
2019-06-15T05:13:32.263Z,18.10
2019-06-15T05:15:59.496Z,18.10
2019-06-15T05:18:26.739Z,18.10
2019-06-15T05:20:54.002Z,18.30
2019-06-15T05:23:21.234Z,18.30
2019-06-15T05:25:48.459Z,18.20
2019-06-15T05:28:15.700Z,18.30
2019-06-15T05:30:42.937Z,18.20
2019-06-15T05:33:10.159Z,18.30
2019-06-15T05:35:37.359Z,18.40
2019-06-15T05:38:04.727Z,18.30
2019-06-15T05:40:31.971Z,18.40
2019-06-15T05:42:59.200Z,18.30
2019-06-15T05:45:26.548Z,18.30
2019-06-15T05:47:55.316Z,18.20
2019-06-15T05:50:22.888Z,18.30
2019-06-15T05:52:50.308Z,18.20
2019-06-15T05:55:17.548Z,18.20
2019-06-15T05:57:44.810Z,18.30
2019-06-15T06:00:12.737Z,18.30
2019-06-15T06:02:39.971Z,18.50
2019-06-15T06:05:07.612Z,18.30
2019-06-15T06:07:34.881Z,18.30
2019-06-15T06:10:02.241Z,18.30
2019-06-15T06:12:29.667Z,18.30
2019-06-15T06:14:56.963Z,18.30
2019-06-15T06:17:26.839Z,18.40
2019-06-15T06:19:54.133Z,18.50
2019-06-15T06:22:21.386Z,18.50
2019-06-15T06:24:48.607Z,18.60
2019-06-15T06:27:15.932Z,18.60
2019-06-15T06:29:43.368Z,18.80
2019-06-15T06:32:10.621Z,18.80
2019-06-15T06:34:37.941Z,18.90
2019-06-15T06:37:05.231Z,19.10
2019-06-15T06:39:32.488Z,19.20
2019-06-15T06:41:59.753Z,19.30
2019-06-15T06:44:27.127Z,19.40
2019-06-15T06:46:54.437Z,19.50
2019-06-15T06:49:21.728Z,19.50
2019-06-15T06:51:49.008Z,19.60
2019-06-15T06:54:16.243Z,19.60
2019-06-15T06:56:43.504Z,19.80
2019-06-15T06:59:10.784Z,20.00
2019-06-15T07:01:38.109Z,20.10
2019-06-15T07:04:05.476Z,20.30
2019-06-15T07:06:32.853Z,20.30
2019-06-15T07:09:00.102Z,20.40
2019-06-15T07:11:27.455Z,20.50
2019-06-15T07:13:54.702Z,20.40
2019-06-15T07:16:21.962Z,20.40
2019-06-15T07:18:49.239Z,20.40
2019-06-15T07:21:16.470Z,20.50
2019-06-15T07:23:43.813Z,20.60
2019-06-15T07:26:11.197Z,20.80
2019-06-15T07:28:38.504Z,20.90
2019-06-15T07:31:05.745Z,20.90
2019-06-15T07:33:33.139Z,21.00
2019-06-15T07:36:00.395Z,21.20
2019-06-15T07:38:27.866Z,21.30
2019-06-15T07:40:55.123Z,21.20
2019-06-15T07:43:22.387Z,21.10
2019-06-15T07:45:49.643Z,20.90
2019-06-15T07:48:16.928Z,20.70
2019-06-15T07:50:44.374Z,20.40
2019-06-15T07:53:11.651Z,20.60
2019-06-15T07:55:39.113Z,21.00
2019-06-15T07:58:06.570Z,21.20
2019-06-15T08:00:36.141Z,21.70
2019-06-15T08:03:03.851Z,21.80
2019-06-15T08:05:31.145Z,22.10
2019-06-15T08:07:58.561Z,22.20
2019-06-15T08:10:25.990Z,22.20
2019-06-15T08:12:54.056Z,22.00
2019-06-15T08:15:21.350Z,21.80
2019-06-15T08:17:48.919Z,22.00
2019-06-15T08:20:20.788Z,21.90
2019-06-15T08:22:48.065Z,21.80
2019-06-15T08:25:15.544Z,21.60
2019-06-15T08:27:42.838Z,21.50
2019-06-15T08:30:12.410Z,21.50
2019-06-15T08:32:41.260Z,21.40
2019-06-15T08:35:08.651Z,21.60
2019-06-15T08:37:35.963Z,21.90
2019-06-15T08:40:03.617Z,22.40
2019-06-15T08:42:30.863Z,22.70
2019-06-15T08:44:58.634Z,22.70
2019-06-15T08:47:26.000Z,22.60
2019-06-15T08:49:53.259Z,22.30
2019-06-15T08:52:20.839Z,22.10
2019-06-15T08:54:48.217Z,22.00
2019-06-15T08:57:15.659Z,22.30
2019-06-15T08:59:43.426Z,22.30
2019-06-15T09:02:10.685Z,22.60
2019-06-15T09:04:37.938Z,22.80
2019-06-15T09:07:05.389Z,22.90
2019-06-15T09:09:32.787Z,23.10
2019-06-15T09:12:00.114Z,22.90
2019-06-15T09:14:28.408Z,22.60
2019-06-15T09:16:55.764Z,22.40
2019-06-15T09:19:23.171Z,22.20
2019-06-15T09:21:50.528Z,22.20
2019-06-15T09:24:17.922Z,22.10
2019-06-15T09:26:46.397Z,21.80
2019-06-15T09:29:14.019Z,21.90
2019-06-15T09:31:41.394Z,21.80
2019-06-15T09:34:18.533Z,21.90
2019-06-15T09:36:37.780Z,22.40
2019-06-15T09:39:06.043Z,22.50
2019-06-15T09:41:33.458Z,22.90
2019-06-15T09:44:00.980Z,23.30
2019-06-15T09:46:28.311Z,23.40
2019-06-15T09:48:55.635Z,23.20
2019-06-15T09:51:22.990Z,23.30
2019-06-15T09:53:53.165Z,23.90
2019-06-15T09:56:20.549Z,24.10
2019-06-15T09:58:47.926Z,24.00
2019-06-15T10:01:15.199Z,23.80
2019-06-15T10:03:42.548Z,23.90
2019-06-15T10:06:11.741Z,24.20
2019-06-15T10:08:39.127Z,24.20
2019-06-15T10:11:06.378Z,24.20
2019-06-15T10:13:33.876Z,24.20
2019-06-15T10:16:01.167Z,23.80
2019-06-15T10:18:28.532Z,23.90
2019-06-15T10:20:55.793Z,23.80
2019-06-15T10:23:23.011Z,24.20
2019-06-15T10:25:50.586Z,24.00
2019-06-15T10:28:18.208Z,23.90
2019-06-15T10:30:45.447Z,23.70
2019-06-15T10:33:12.694Z,23.50
2019-06-15T10:35:40.063Z,23.10
2019-06-15T10:38:07.317Z,23.00
2019-06-15T10:40:35.128Z,22.90
2019-06-15T10:43:02.550Z,22.90
2019-06-15T10:45:29.937Z,22.80
2019-06-15T10:47:57.289Z,22.80
2019-06-15T10:50:24.599Z,22.80
2019-06-15T10:52:51.858Z,22.60
2019-06-15T10:55:19.186Z,22.50
2019-06-15T10:57:46.459Z,22.60
2019-06-15T11:00:14.426Z,22.50
2019-06-15T11:02:41.656Z,22.50
2019-06-15T11:05:10.175Z,22.80
2019-06-15T11:07:37.440Z,22.70
2019-06-15T11:10:05.295Z,22.90
2019-06-15T11:12:45.231Z,23.00
2019-06-15T11:15:01.770Z,23.70
2019-06-15T11:17:29.509Z,24.40
2019-06-15T11:19:56.728Z,24.60
2019-06-15T11:22:23.979Z,24.40
2019-06-15T11:24:51.241Z,24.20
2019-06-15T11:27:18.483Z,23.90
2019-06-15T11:29:45.704Z,24.10
2019-06-15T11:32:12.930Z,24.70
2019-06-15T11:34:40.184Z,24.80
2019-06-15T11:37:07.460Z,25.20
2019-06-15T11:39:35.475Z,25.80
2019-06-15T11:42:02.786Z,26.10
2019-06-15T11:44:30.052Z,26.20
2019-06-15T11:46:57.286Z,25.40
2019-06-15T11:49:24.538Z,24.90
2019-06-15T11:51:51.876Z,24.40
2019-06-15T11:54:19.115Z,24.40
2019-06-15T11:56:46.332Z,24.10
2019-06-15T11:59:13.545Z,24.00
2019-06-15T12:01:40.791Z,24.20
2019-06-15T12:04:08.018Z,25.40
2019-06-15T12:06:35.297Z,26.30
2019-06-15T12:09:03.783Z,26.60
2019-06-15T12:11:31.016Z,26.20
2019-06-15T12:13:58.256Z,25.70
2019-06-15T12:16:25.495Z,25.30
2019-06-15T12:18:52.710Z,25.20
2019-06-15T12:21:19.962Z,24.90
2019-06-15T12:23:47.191Z,24.80
2019-06-15T12:26:14.437Z,25.10
2019-06-15T12:28:41.766Z,26.00
2019-06-15T12:31:09.085Z,25.90
2019-06-15T12:33:36.328Z,25.50
2019-06-15T12:36:15.831Z,26.30
2019-06-15T12:38:32.903Z,26.80
2019-06-15T12:41:00.141Z,27.00
2019-06-15T12:43:27.475Z,26.80
2019-06-15T12:45:57.662Z,26.50
2019-06-15T12:48:23.846Z,27.20
2019-06-15T12:50:51.091Z,28.00
2019-06-15T12:53:18.346Z,28.50
2019-06-15T12:55:45.582Z,29.60
2019-06-15T12:58:12.799Z,29.70
2019-06-15T13:00:40.042Z,30.10
2019-06-15T13:03:07.288Z,29.70
2019-06-15T13:05:34.529Z,29.20
2019-06-15T13:08:01.783Z,29.80
2019-06-15T13:10:29.091Z,29.60
2019-06-15T13:12:56.339Z,29.40
2019-06-15T13:15:23.568Z,29.30
2019-06-15T13:17:50.826Z,29.30
2019-06-15T13:20:18.759Z,28.90
2019-06-15T13:22:45.986Z,28.70
2019-06-15T13:25:13.219Z,28.60
2019-06-15T13:27:40.431Z,28.20
2019-06-15T13:30:09.494Z,28.10
2019-06-15T13:32:36.732Z,28.40
2019-06-15T13:35:04.411Z,28.50
2019-06-15T13:37:41.552Z,28.50
2019-06-15T13:40:00.871Z,28.60
2019-06-15T13:42:28.108Z,28.30
2019-06-15T13:44:56.115Z,28.70
2019-06-15T13:47:23.379Z,29.30
2019-06-15T13:49:50.613Z,29.40
2019-06-15T13:52:17.884Z,28.80
2019-06-15T13:54:45.225Z,28.40
2019-06-15T13:57:12.470Z,28.70
2019-06-15T13:59:39.713Z,29.10
2019-06-15T14:02:06.961Z,29.50
2019-06-15T14:04:34.295Z,29.90
2019-06-15T14:07:01.623Z,29.40
2019-06-15T14:09:28.840Z,28.80
2019-06-15T14:11:56.183Z,29.00
2019-06-15T14:14:23.499Z,29.20
2019-06-15T14:16:50.745Z,29.60
2019-06-15T14:19:17.974Z,29.90
2019-06-15T14:21:45.316Z,30.30
2019-06-15T14:24:12.592Z,30.00
2019-06-15T14:26:39.843Z,29.40
2019-06-15T14:29:07.062Z,29.40
2019-06-15T14:31:41.284Z,28.60
2019-06-15T14:34:03.439Z,28.20
2019-06-15T14:36:31.243Z,27.50
2019-06-15T14:38:58.669Z,27.50
2019-06-15T14:41:26.072Z,27.40
2019-06-15T14:43:54.439Z,27.50
2019-06-15T14:46:21.817Z,27.60
2019-06-15T14:48:49.181Z,27.80
2019-06-15T14:51:16.592Z,28.00
2019-06-15T14:53:49.857Z,28.60
2019-06-15T14:56:13.209Z,28.90
2019-06-15T14:58:40.491Z,29.20
2019-06-15T15:01:07.728Z,29.60
2019-06-15T15:03:37.424Z,29.90
2019-06-15T15:06:06.226Z,29.50
2019-06-15T15:08:33.410Z,29.60
2019-06-15T15:11:00.783Z,29.10
2019-06-15T15:13:28.128Z,28.60
2019-06-15T15:15:56.979Z,28.40
2019-06-15T15:18:26.775Z,27.70
2019-06-15T15:20:53.555Z,27.40
2019-06-15T15:23:20.805Z,27.10
2019-06-15T15:25:48.256Z,27.00
2019-06-15T15:28:16.746Z,27.00
2019-06-15T15:30:44.043Z,27.00
2019-06-15T15:33:11.315Z,26.80
2019-06-15T15:35:38.543Z,26.60
2019-06-15T15:38:06.201Z,26.60
2019-06-15T15:40:36.331Z,26.50
2019-06-15T15:43:03.025Z,26.20
2019-06-15T15:45:30.254Z,26.10
2019-06-15T15:47:57.559Z,26.10
2019-06-15T15:50:26.216Z,26.30
2019-06-15T15:52:53.758Z,26.30
2019-06-15T15:55:20.975Z,26.30
2019-06-15T15:57:48.336Z,26.20
2019-06-15T16:00:26.918Z,26.10
2019-06-15T16:02:56.514Z,26.10
2019-06-15T16:05:22.948Z,25.90
2019-06-15T16:07:50.288Z,26.20
2019-06-15T16:10:17.546Z,26.20
2019-06-15T16:12:46.426Z,26.10
2019-06-15T16:15:15.949Z,26.20
2019-06-15T16:17:43.361Z,26.40
2019-06-15T16:20:17.245Z,26.10
2019-06-15T16:22:45.949Z,26.00
2019-06-15T16:25:13.336Z,25.80
2019-06-15T16:27:41.457Z,25.60
2019-06-15T16:30:09.015Z,25.40
2019-06-15T16:32:37.287Z,25.40
2019-06-15T16:35:04.797Z,25.40
2019-06-15T16:37:32.029Z,25.40
2019-06-15T16:39:59.279Z,25.30
2019-06-15T16:42:26.861Z,25.20
2019-06-15T16:44:56.143Z,25.10
2019-06-15T16:47:23.392Z,25.20
2019-06-15T16:49:50.607Z,25.10
2019-06-15T16:52:17.875Z,25.20
2019-06-15T16:54:46.974Z,25.30
2019-06-15T16:57:16.093Z,25.50
2019-06-15T16:59:43.468Z,25.60
2019-06-15T17:02:10.684Z,25.50
2019-06-15T17:04:37.926Z,25.50
2019-06-15T17:07:07.066Z,25.30
2019-06-15T17:09:36.250Z,25.30
2019-06-15T17:12:03.428Z,25.30
2019-06-15T17:14:30.687Z,25.30
2019-06-15T17:16:58.001Z,25.20
2019-06-15T17:19:26.946Z,25.20
2019-06-15T17:21:56.827Z,25.20
2019-06-15T17:24:23.588Z,25.20
2019-06-15T17:26:50.835Z,25.10
2019-06-15T17:29:18.064Z,25.10
2019-06-15T17:31:46.736Z,25.10
2019-06-15T17:34:16.530Z,24.90
2019-06-15T17:36:43.387Z,25.10
2019-06-15T17:39:10.636Z,25.00
2019-06-15T17:41:37.891Z,24.80
2019-06-15T17:44:06.052Z,24.80
2019-06-15T17:46:33.657Z,24.70
2019-06-15T17:49:00.872Z,24.70
2019-06-15T17:51:28.123Z,24.60
2019-06-15T17:53:56.328Z,24.50
2019-06-15T17:56:23.900Z,24.40
2019-06-15T17:58:51.131Z,24.40
2019-06-15T18:01:18.383Z,24.30
2019-06-15T18:03:54.007Z,24.30
2019-06-15T18:06:17.163Z,24.30
2019-06-15T18:08:46.394Z,24.20
2019-06-15T18:11:13.020Z,24.10
2019-06-15T18:13:40.291Z,24.10
2019-06-15T18:16:07.526Z,24.00
2019-06-15T18:18:36.934Z,23.90
2019-06-15T18:21:06.461Z,23.80
2019-06-15T18:23:33.060Z,23.80
2019-06-15T18:26:00.284Z,23.60
2019-06-15T18:28:27.505Z,23.70
2019-06-15T18:30:54.744Z,23.70
2019-06-15T18:33:21.975Z,23.60
2019-06-15T18:35:49.189Z,23.60
2019-06-15T18:38:16.540Z,23.50
2019-06-15T18:40:43.775Z,23.40
2019-06-15T18:43:11.018Z,23.40
2019-06-15T18:45:38.273Z,23.30
2019-06-15T18:48:06.280Z,23.30
2019-06-15T18:50:37.716Z,23.30
2019-06-15T18:53:07.122Z,23.30
2019-06-15T18:55:36.418Z,23.20
2019-06-15T18:58:03.969Z,23.20
2019-06-15T19:00:31.210Z,23.20
2019-06-15T19:02:58.887Z,23.10
2019-06-15T19:05:26.200Z,23.10
2019-06-15T19:07:53.436Z,23.00
2019-06-15T19:10:28.937Z,22.90
2019-06-15T19:12:56.730Z,22.90
2019-06-15T19:15:24.087Z,22.90
2019-06-15T19:17:51.312Z,22.80
2019-06-15T19:20:18.544Z,22.80
2019-06-15T19:22:47.578Z,22.80
2019-06-15T19:25:16.200Z,22.70
2019-06-15T19:27:43.538Z,22.70
2019-06-15T19:30:10.776Z,22.70
2019-06-15T19:32:38.003Z,22.70
2019-06-15T19:35:05.965Z,22.50
2019-06-15T19:37:34.006Z,22.40
2019-06-15T19:40:02.547Z,22.30
2019-06-15T19:42:29.795Z,22.30
2019-06-15T19:44:57.040Z,22.30
2019-06-15T19:47:26.372Z,22.20
2019-06-15T19:49:53.419Z,22.10
2019-06-15T19:52:20.634Z,22.10
2019-06-15T19:54:47.857Z,22.00
2019-06-15T19:57:17.063Z,21.80
2019-06-15T19:59:44.243Z,21.80
2019-06-15T20:02:11.484Z,21.80
2019-06-15T20:04:38.719Z,21.80
2019-06-15T20:07:06.586Z,21.70
2019-06-15T20:09:36.925Z,21.70
2019-06-15T20:12:03.243Z,21.70
2019-06-15T20:14:30.561Z,21.70
2019-06-15T20:16:57.791Z,21.70
2019-06-15T20:19:26.612Z,21.70
2019-06-15T20:21:54.148Z,21.70
2019-06-15T20:24:21.408Z,21.60
2019-06-15T20:26:48.628Z,21.60
2019-06-15T20:29:17.520Z,21.50
2019-06-15T20:31:46.280Z,21.40
2019-06-15T20:34:13.751Z,21.50
2019-06-15T20:36:40.983Z,21.40
2019-06-15T20:39:08.319Z,21.30
2019-06-15T20:41:36.452Z,21.20
2019-06-15T20:44:04.011Z,21.20
2019-06-15T20:46:31.394Z,21.10
2019-06-15T20:48:58.731Z,21.00
2019-06-15T20:51:25.982Z,21.00
2019-06-15T20:53:53.404Z,21.10
2019-06-15T20:56:20.656Z,21.00
2019-06-15T20:58:48.011Z,20.90
2019-06-15T21:01:16.439Z,20.80
2019-06-15T21:03:44.007Z,20.90
2019-06-15T21:06:11.267Z,20.80
2019-06-15T21:08:38.988Z,20.70
2019-06-15T21:11:07.251Z,20.70
2019-06-15T21:13:38.543Z,20.70
2019-06-15T21:16:06.706Z,20.60
2019-06-15T21:18:36.906Z,20.70
2019-06-15T21:21:03.496Z,20.70
2019-06-15T21:23:30.739Z,20.80
2019-06-15T21:26:00.139Z,20.60
2019-06-15T21:28:27.502Z,20.60
2019-06-15T21:30:54.750Z,20.50
2019-06-15T21:33:26.366Z,20.50
2019-06-15T21:35:56.526Z,20.50
2019-06-15T21:38:26.464Z,20.50
2019-06-15T21:40:56.798Z,20.40
2019-06-15T21:43:26.534Z,20.40
2019-06-15T21:45:56.835Z,20.30
2019-06-15T21:48:26.799Z,20.30
2019-06-15T21:50:58.831Z,20.20
2019-06-15T21:53:26.735Z,20.20
2019-06-15T21:55:56.261Z,20.10
2019-06-15T21:58:23.487Z,20.10
2019-06-15T22:01:14.687Z,20.10
2019-06-15T22:03:46.308Z,20.10
2019-06-15T22:06:13.111Z,20.10
2019-06-15T22:08:40.348Z,20.00
2019-06-15T22:11:07.563Z,19.90
2019-06-15T22:13:37.146Z,19.90
2019-06-15T22:16:03.919Z,19.90
2019-06-15T22:18:31.128Z,19.90
2019-06-15T22:20:58.391Z,19.80
2019-06-15T22:23:26.858Z,19.90
2019-06-15T22:25:56.911Z,20.00
2019-06-15T22:28:23.412Z,19.90
2019-06-15T22:30:50.651Z,19.90
2019-06-15T22:33:17.875Z,19.80
2019-06-15T22:35:47.309Z,19.80
2019-06-15T22:38:14.352Z,19.90
2019-06-15T22:40:41.615Z,19.70
2019-06-15T22:43:08.868Z,19.70
2019-06-15T22:45:36.194Z,19.60
2019-06-15T22:48:03.535Z,19.70
2019-06-15T22:50:30.785Z,19.70
2019-06-15T22:52:58.150Z,19.80
2019-06-15T22:55:26.140Z,19.60
2019-06-15T22:57:53.470Z,19.60
2019-06-15T23:00:20.696Z,19.50
2019-06-15T23:02:47.927Z,19.50
2019-06-15T23:05:17.203Z,19.50
2019-06-15T23:07:46.960Z,19.60
2019-06-15T23:10:16.516Z,19.50
2019-06-15T23:12:42.904Z,19.60
2019-06-15T23:15:10.248Z,19.50
2019-06-15T23:17:37.590Z,19.40
2019-06-15T23:20:06.552Z,19.40
2019-06-15T23:22:34.065Z,19.40
2019-06-15T23:25:01.296Z,19.40
2019-06-15T23:27:28.547Z,19.30
2019-06-15T23:29:56.996Z,19.30
2019-06-15T23:32:24.423Z,19.30
2019-06-15T23:34:51.748Z,19.30
2019-06-15T23:37:20.126Z,19.40
2019-06-15T23:40:07.404Z,19.30
2019-06-15T23:42:36.412Z,19.30
2019-06-15T23:45:06.743Z,19.20
2019-06-15T23:47:33.573Z,19.20
2019-06-15T23:50:00.847Z,19.30
2019-06-15T23:52:28.200Z,19.20
2019-06-15T23:54:56.958Z,19.30
2019-06-15T23:57:26.013Z,19.30
2019-06-15T23:59:55.939Z,19.30
